sensor_id;sensor_type;location;lat;lon;timestamp;pressure;altitude;pressure_sealevel;temperature;humidity
65897;BME280;52677;50.898;10.854;2022-10-18T00:00:46;99460.25;;;13.64;97.59
65897;BME280;52677;50.898;10.854;2022-10-18T00:02:46;99463.47;;;13.66;97.77
65897;BME280;52677;50.898;10.854;2022-10-18T00:04:47;99471.34;;;13.64;98.15
65897;BME280;52677;50.898;10.854;2022-10-18T00:06:47;99464.63;;;13.65;98.37
65897;BME280;52677;50.898;10.854;2022-10-18T00:08:47;99464.63;;;13.65;98.67
65897;BME280;52677;50.898;10.854;2022-10-18T00:10:48;99461.03;;;13.64;98.69
65897;BME280;52677;50.898;10.854;2022-10-18T00:12:48;99464.63;;;13.65;98.77
65897;BME280;52677;50.898;10.854;2022-10-18T00:14:49;99474.53;;;13.62;98.23
65897;BME280;52677;50.898;10.854;2022-10-18T00:16:49;99470.94;;;13.62;99.57
65897;BME280;52677;50.898;10.854;2022-10-18T00:18:50;99474.09;;;13.60;99.49
65897;BME280;52677;50.898;10.854;2022-10-18T00:21:00;99472.44;;;13.56;100.00
65897;BME280;52677;50.898;10.854;2022-10-18T00:23:01;99471.59;;;13.52;100.00
65897;BME280;52677;50.898;10.854;2022-10-18T00:25:02;99473.56;;;13.51;100.00
65897;BME280;52677;50.898;10.854;2022-10-18T00:27:03;99468.69;;;13.44;100.00
65897;BME280;52677;50.898;10.854;2022-10-18T00:29:04;99476.28;;;13.47;100.00
65897;BME280;52677;50.898;10.854;2022-10-18T00:31:13;99479.94;;;13.52;99.66
65897;BME280;52677;50.898;10.854;2022-10-18T00:33:13;99477.94;;;13.52;99.84
65897;BME280;52677;50.898;10.854;2022-10-18T00:35:14;99474.75;;;13.50;99.72
65897;BME280;52677;50.898;10.854;2022-10-18T00:37:14;99474.28;;;13.48;100.00
65897;BME280;52677;50.898;10.854;2022-10-18T00:39:17;99460.78;;;13.46;100.00
65897;BME280;52677;50.898;10.854;2022-10-18T00:41:21;99457.19;;;13.46;100.00
65897;BME280;52677;50.898;10.854;2022-10-18T00:43:21;99463.13;;;13.44;99.82
65897;BME280;52677;50.898;10.854;2022-10-18T00:45:23;99463.50;;;13.43;99.71
65897;BME280;52677;50.898;10.854;2022-10-18T00:47:23;99465.53;;;13.46;99.05
65897;BME280;52677;50.898;10.854;2022-10-18T00:49:31;99466.31;;;13.46;98.17
65897;BME280;52677;50.898;10.854;2022-10-18T00:53:52;99469.53;;;13.48;98.89
65897;BME280;52677;50.898;10.854;2022-10-18T00:55:52;99459.59;;;13.47;99.43
65897;BME280;52677;50.898;10.854;2022-10-18T00:57:53;99459.97;;;13.46;99.76
65897;BME280;52677;50.898;10.854;2022-10-18T00:59:54;99466.31;;;13.46;100.00
65897;BME280;52677;50.898;10.854;2022-10-18T01:01:55;99455.97;;;13.43;100.00
65897;BME280;52677;50.898;10.854;2022-10-18T01:03:55;99451.63;;;13.46;100.00
65897;BME280;52677;50.898;10.854;2022-10-18T01:05:57;99454.47;;;13.49;99.69
65897;BME280;52677;50.898;10.854;2022-10-18T01:08:10;99447.28;;;13.48;99.76
65897;BME280;52677;50.898;10.854;2022-10-18T01:10:26;99456.50;;;13.53;99.65
65897;BME280;52677;50.898;10.854;2022-10-18T01:17:16;99458.00;;;13.46;100.00
65897;BME280;52677;50.898;10.854;2022-10-18T01:19:38;99463.16;;;13.48;100.00
65897;BME280;52677;50.898;10.854;2022-10-18T01:21:59;99465.94;;;13.48;100.00
65897;BME280;52677;50.898;10.854;2022-10-18T01:29:21;99467.25;;;13.54;100.00
65897;BME280;52677;50.898;10.854;2022-10-18T01:31:30;99459.72;;;13.55;100.00
65897;BME280;52677;50.898;10.854;2022-10-18T01:33:37;99463.66;;;13.54;100.00
65897;BME280;52677;50.898;10.854;2022-10-18T01:35:44;99463.28;;;13.55;100.00
65897;BME280;52677;50.898;10.854;2022-10-18T01:37:48;99455.31;;;13.54;100.00
65897;BME280;52677;50.898;10.854;2022-10-18T01:39:53;99458.91;;;13.54;100.00
65897;BME280;52677;50.898;10.854;2022-10-18T01:41:57;99466.44;;;13.54;100.00
65897;BME280;52677;50.898;10.854;2022-10-18T01:44:00;99467.63;;;13.53;100.00
65897;BME280;52677;50.898;10.854;2022-10-18T01:46:03;99474.78;;;13.54;100.00
65897;BME280;52677;50.898;10.854;2022-10-18T01:48:03;99470.41;;;13.53;100.00
65897;BME280;52677;50.898;10.854;2022-10-18T01:50:05;99470.81;;;13.55;100.00
65897;BME280;52677;50.898;10.854;2022-10-18T01:52:05;99460.88;;;13.54;100.00
65897;BME280;52677;50.898;10.854;2022-10-18T01:54:06;99467.63;;;13.53;100.00
65897;BME280;52677;50.898;10.854;2022-10-18T01:56:17;99463.97;;;13.48;100.00
65897;BME280;52677;50.898;10.854;2022-10-18T01:58:28;99465.59;;;13.49;100.00
65897;BME280;52677;50.898;10.854;2022-10-18T02:00:37;99465.16;;;13.47;100.00
65897;BME280;52677;50.898;10.854;2022-10-18T02:04:59;99462.06;;;13.53;100.00
65897;BME280;52677;50.898;10.854;2022-10-18T02:07:08;99458.88;;;13.51;100.00
65897;BME280;52677;50.898;10.854;2022-10-18T02:09:17;99459.28;;;13.53;100.00
65897;BME280;52677;50.898;10.854;2022-10-18T02:11:19;99471.16;;;13.49;100.00
65897;BME280;52677;50.898;10.854;2022-10-18T02:13:21;99462.38;;;13.47;100.00
65897;BME280;52677;50.898;10.854;2022-10-18T02:15:28;99455.22;;;13.46;100.00
65897;BME280;52677;50.898;10.854;2022-10-18T02:17:29;99455.56;;;13.41;100.00
65897;BME280;52677;50.898;10.854;2022-10-18T02:19:30;99464.31;;;13.43;100.00
65897;BME280;52677;50.898;10.854;2022-10-18T02:21:32;99457.56;;;13.44;100.00
65897;BME280;52677;50.898;10.854;2022-10-18T02:23:33;99460.72;;;13.43;100.00
65897;BME280;52677;50.898;10.854;2022-10-18T02:25:34;99456.38;;;13.45;100.00
65897;BME280;52677;50.898;10.854;2022-10-18T02:27:36;99458.78;;;13.47;100.00
65897;BME280;52677;50.898;10.854;2022-10-18T02:29:36;99462.81;;;13.49;100.00
65897;BME280;52677;50.898;10.854;2022-10-18T02:31:50;99459.66;;;13.51;100.00
65897;BME280;52677;50.898;10.854;2022-10-18T02:34:28;99458.88;;;13.51;100.00
65897;BME280;52677;50.898;10.854;2022-10-18T02:36:33;99457.25;;;13.49;100.00
65897;BME280;52677;50.898;10.854;2022-10-18T02:38:37;99449.66;;;13.46;100.00
65897;BME280;52677;50.898;10.854;2022-10-18T02:40:38;99460.38;;;13.48;100.00
65897;BME280;52677;50.898;10.854;2022-10-18T02:42:46;99467.50;;;13.45;100.00
65897;BME280;52677;50.898;10.854;2022-10-18T02:44:47;99464.72;;;13.45;100.00
65897;BME280;52677;50.898;10.854;2022-10-18T02:46:47;99454.78;;;13.44;100.00
65897;BME280;52677;50.898;10.854;2022-10-18T02:48:48;99461.91;;;13.42;100.00
65897;BME280;52677;50.898;10.854;2022-10-18T02:50:48;99463.50;;;13.43;100.00
65897;BME280;52677;50.898;10.854;2022-10-18T02:52:48;99452.31;;;13.39;100.00
65897;BME280;52677;50.898;10.854;2022-10-18T02:54:48;99456.28;;;13.38;100.00
65897;BME280;52677;50.898;10.854;2022-10-18T02:56:49;99465.03;;;13.40;100.00
65897;BME280;52677;50.898;10.854;2022-10-18T02:58:50;99470.59;;;13.40;100.00
65897;BME280;52677;50.898;10.854;2022-10-18T03:00:50;99465.41;;;13.39;100.00
65897;BME280;52677;50.898;10.854;2022-10-18T03:02:50;99463.09;;;13.41;100.00
65897;BME280;52677;50.898;10.854;2022-10-18T03:04:52;99462.25;;;13.40;100.00
65897;BME280;52677;50.898;10.854;2022-10-18T03:06:53;99463.13;;;13.44;100.00
65897;BME280;52677;50.898;10.854;2022-10-18T03:08:53;99462.34;;;13.44;100.00
65897;BME280;52677;50.898;10.854;2022-10-18T03:10:53;99459.53;;;13.44;100.00
65897;BME280;52677;50.898;10.854;2022-10-18T03:12:53;99461.91;;;13.42;100.00
65897;BME280;52677;50.898;10.854;2022-10-18T03:14:54;99460.72;;;13.43;100.00
65897;BME280;52677;50.898;10.854;2022-10-18T03:16:54;99458.69;;;13.40;100.00
65897;BME280;52677;50.898;10.854;2022-10-18T03:18:54;99458.69;;;13.40;100.00
65897;BME280;52677;50.898;10.854;2022-10-18T03:20:55;99460.34;;;13.44;100.00
65897;BME280;52677;50.898;10.854;2022-10-18T03:22:55;99454.84;;;13.48;100.00
65897;BME280;52677;50.898;10.854;2022-10-18T03:24:55;99449.72;;;13.50;100.00
65897;BME280;52677;50.898;10.854;2022-10-18T03:26:55;99446.19;;;13.53;100.00
65897;BME280;52677;50.898;10.854;2022-10-18T03:28:56;99455.28;;;13.50;100.00
65897;BME280;52677;50.898;10.854;2022-10-18T03:31:00;99462.06;;;13.53;100.00
65897;BME280;52677;50.898;10.854;2022-10-18T03:33:01;99455.31;;;13.54;100.00
65897;BME280;52677;50.898;10.854;2022-10-18T03:35:01;99458.09;;;13.54;100.00
65897;BME280;52677;50.898;10.854;2022-10-18T03:37:01;99446.97;;;13.54;100.00
65897;BME280;52677;50.898;10.854;2022-10-18T03:39:02;99450.63;;;13.58;100.00
65897;BME280;52677;50.898;10.854;2022-10-18T03:41:02;99457.47;;;13.64;100.00
65897;BME280;52677;50.898;10.854;2022-10-18T03:43:02;99446.78;;;13.66;100.00
65897;BME280;52677;50.898;10.854;2022-10-18T03:45:03;99435.66;;;13.66;100.00
65897;BME280;52677;50.898;10.854;2022-10-18T03:47:04;99438.00;;;13.64;100.00
65897;BME280;52677;50.898;10.854;2022-10-18T03:49:04;99431.22;;;13.61;100.00
65897;BME280;52677;50.898;10.854;2022-10-18T03:51:04;99434.00;;;13.61;100.00
65897;BME280;52677;50.898;10.854;2022-10-18T03:53:04;99437.88;;;13.57;100.00
65897;BME280;52677;50.898;10.854;2022-10-18T03:55:05;99437.88;;;13.57;100.00
65897;BME280;52677;50.898;10.854;2022-10-18T03:57:06;99426.34;;;13.55;100.00
65897;BME280;52677;50.898;10.854;2022-10-18T03:59:06;99427.53;;;13.54;100.00
65897;BME280;52677;50.898;10.854;2022-10-18T04:01:06;99421.47;;;13.48;100.00
65897;BME280;52677;50.898;10.854;2022-10-18T04:03:07;99421.06;;;13.46;100.00
65897;BME280;52677;50.898;10.854;2022-10-18T04:05:07;99421.81;;;13.43;100.00
65897;BME280;52677;50.898;10.854;2022-10-18T04:07:08;99423.34;;;13.40;100.00
65897;BME280;52677;50.898;10.854;2022-10-18T04:09:08;99427.69;;;13.38;100.00
65897;BME280;52677;50.898;10.854;2022-10-18T04:11:09;99432.00;;;13.35;100.00
65897;BME280;52677;50.898;10.854;2022-10-18T04:13:11;99435.59;;;13.36;100.00
65897;BME280;52677;50.898;10.854;2022-10-18T04:15:11;99430.03;;;13.36;100.00
65897;BME280;52677;50.898;10.854;2022-10-18T04:17:11;99425.28;;;13.36;100.00
65897;BME280;52677;50.898;10.854;2022-10-18T04:19:12;99426.50;;;13.39;100.00
65897;BME280;52677;50.898;10.854;2022-10-18T04:21:12;99421.44;;;13.44;100.00
65897;BME280;52677;50.898;10.854;2022-10-18T04:23:12;99437.69;;;13.42;100.00
65897;BME280;52677;50.898;10.854;2022-10-18T04:25:13;99430.53;;;13.41;100.00
65897;BME280;52677;50.898;10.854;2022-10-18T04:27:13;99433.66;;;13.40;100.00
65897;BME280;52677;50.898;10.854;2022-10-18T04:29:13;99446.75;;;13.39;100.00
65897;BME280;52677;50.898;10.854;2022-10-18T04:31:14;99450.00;;;13.41;100.00
65897;BME280;52677;50.898;10.854;2022-10-18T04:33:14;99451.22;;;13.44;100.00
65897;BME280;52677;50.898;10.854;2022-10-18T04:35:14;99437.41;;;13.51;100.00
65897;BME280;52677;50.898;10.854;2022-10-18T04:37:14;99434.75;;;13.58;100.00
65897;BME280;52677;50.898;10.854;2022-10-18T04:39:15;99418.09;;;13.62;100.00
65897;BME280;52677;50.898;10.854;2022-10-18T04:41:15;99419.78;;;13.66;100.00
65897;BME280;52677;50.898;10.854;2022-10-18T04:43:15;99415.00;;;13.67;100.00
65897;BME280;52677;50.898;10.854;2022-10-18T04:45:16;99409.06;;;13.68;100.00
65897;BME280;52677;50.898;10.854;2022-10-18T04:47:16;99420.63;;;13.70;100.00
65897;BME280;52677;50.898;10.854;2022-10-18T04:49:17;99419.44;;;13.71;100.00
65897;BME280;52677;50.898;10.854;2022-10-18T04:51:17;99423.78;;;13.69;100.00
65897;BME280;52677;50.898;10.854;2022-10-18T04:53:18;99424.94;;;13.68;100.00
65897;BME280;52677;50.898;10.854;2022-10-18T04:55:19;99428.94;;;13.70;100.00
65897;BME280;52677;50.898;10.854;2022-10-18T04:57:19;99425.75;;;13.68;100.00
65897;BME280;52677;50.898;10.854;2022-10-18T04:59:19;99440.47;;;13.69;100.00
65897;BME280;52677;50.898;10.854;2022-10-18T05:01:20;99449.63;;;13.73;100.00
65897;BME280;52677;50.898;10.854;2022-10-18T05:03:20;99442.59;;;13.79;100.00
65897;BME280;52677;50.898;10.854;2022-10-18T05:05:20;99411.25;;;13.82;100.00
65897;BME280;52677;50.898;10.854;2022-10-18T05:07:20;99384.66;;;13.85;100.00
65897;BME280;52677;50.898;10.854;2022-10-18T05:09:21;99374.75;;;13.87;100.00
65897;BME280;52677;50.898;10.854;2022-10-18T05:11:23;99369.19;;;13.87;100.00
65897;BME280;52677;50.898;10.854;2022-10-18T05:13:24;99383.94;;;13.91;100.00
65897;BME280;52677;50.898;10.854;2022-10-18T05:15:25;99384.78;;;13.95;100.00
65897;BME280;52677;50.898;10.854;2022-10-18T05:17:25;99382.00;;;13.95;100.00
65897;BME280;52677;50.898;10.854;2022-10-18T05:19:25;99369.75;;;14.00;100.00
65897;BME280;52677;50.898;10.854;2022-10-18T05:21:25;99363.03;;;14.04;100.00
65897;BME280;52677;50.898;10.854;2022-10-18T05:23:26;99365.88;;;14.08;100.00
65897;BME280;52677;50.898;10.854;2022-10-18T05:25:26;99373.44;;;14.11;100.00
65897;BME280;52677;50.898;10.854;2022-10-18T05:27:28;99383.00;;;14.14;100.00
65897;BME280;52677;50.898;10.854;2022-10-18T05:29:28;99392.22;;;14.18;100.00
65897;BME280;52677;50.898;10.854;2022-10-18T05:31:28;99401.78;;;14.20;100.00
65897;BME280;52677;50.898;10.854;2022-10-18T05:33:29;99385.13;;;14.24;100.00
65897;BME280;52677;50.898;10.854;2022-10-18T05:35:29;99375.94;;;14.20;100.00
65897;BME280;52677;50.898;10.854;2022-10-18T05:37:30;99357.25;;;14.20;100.00
65897;BME280;52677;50.898;10.854;2022-10-18T05:39:30;99345.69;;;14.18;100.00
65897;BME280;52677;50.898;10.854;2022-10-18T05:41:30;99331.78;;;14.18;100.00
65897;BME280;52677;50.898;10.854;2022-10-18T05:43:31;99327.00;;;14.19;100.00
65897;BME280;52677;50.898;10.854;2022-10-18T05:45:31;99330.59;;;14.19;100.00
65897;BME280;52677;50.898;10.854;2022-10-18T05:47:31;99354.44;;;14.17;100.00
65897;BME280;52677;50.898;10.854;2022-10-18T05:49:31;99399.28;;;14.12;100.00
65897;BME280;52677;50.898;10.854;2022-10-18T05:51:32;99421.22;;;14.17;100.00
65897;BME280;52677;50.898;10.854;2022-10-18T05:53:32;99449.38;;;14.12;100.00
65897;BME280;52677;50.898;10.854;2022-10-18T05:55:32;99402.97;;;14.19;100.00
65897;BME280;52677;50.898;10.854;2022-10-18T05:57:33;99404.81;;;14.08;100.00
65897;BME280;52677;50.898;10.854;2022-10-18T05:59:33;99441.44;;;14.14;100.00
65897;BME280;52677;50.898;10.854;2022-10-18T06:01:33;99429.22;;;14.22;100.00
65897;BME280;52677;50.898;10.854;2022-10-18T06:03:34;99411.69;;;14.18;100.00
65897;BME280;52677;50.898;10.854;2022-10-18T06:05:34;99403.66;;;14.13;100.00
65897;BME280;52677;50.898;10.854;2022-10-18T06:07:35;99400.06;;;14.09;100.00
65897;BME280;52677;50.898;10.854;2022-10-18T06:09:36;99406.34;;;14.05;100.00
65897;BME280;52677;50.898;10.854;2022-10-18T06:11:36;99387.66;;;14.02;100.00
65897;BME280;52677;50.898;10.854;2022-10-18T06:13:48;99405.94;;;14.03;100.00
65897;BME280;52677;50.898;10.854;2022-10-18T06:15:49;99403.94;;;14.00;100.00
65897;BME280;52677;50.898;10.854;2022-10-18T06:17:49;99412.31;;;14.04;100.00
65897;BME280;52677;50.898;10.854;2022-10-18T06:19:49;99405.53;;;14.01;100.00
65897;BME280;52677;50.898;10.854;2022-10-18T06:21:49;99400.00;;;14.05;100.00
65897;BME280;52677;50.898;10.854;2022-10-18T06:23:51;99387.31;;;14.08;100.00
65897;BME280;52677;50.898;10.854;2022-10-18T06:25:51;99382.59;;;14.12;100.00
65897;BME280;52677;50.898;10.854;2022-10-18T06:27:52;99392.91;;;14.11;100.00
65897;BME280;52677;50.898;10.854;2022-10-18T06:29:52;99403.66;;;14.13;100.00
65897;BME280;52677;50.898;10.854;2022-10-18T06:31:52;99415.50;;;14.06;100.00
65897;BME280;52677;50.898;10.854;2022-10-18T06:33:55;99444.13;;;14.06;100.00
65897;BME280;52677;50.898;10.854;2022-10-18T06:35:58;99436.97;;;14.05;100.00
65897;BME280;52677;50.898;10.854;2022-10-18T06:37:59;99419.44;;;14.01;100.00
65897;BME280;52677;50.898;10.854;2022-10-18T06:39:59;99395.19;;;14.02;100.00
65897;BME280;52677;50.898;10.854;2022-10-18T06:42:00;99401.94;;;14.01;100.00
65897;BME280;52677;50.898;10.854;2022-10-18T06:44:00;99406.31;;;13.98;100.00
65897;BME280;52677;50.898;10.854;2022-10-18T06:46:07;99410.28;;;14.01;100.00
65897;BME280;52677;50.898;10.854;2022-10-18T06:48:07;99434.94;;;14.02;100.00
65897;BME280;52677;50.898;10.854;2022-10-18T06:50:07;99454.44;;;14.02;100.00
65897;BME280;52677;50.898;10.854;2022-10-18T06:52:08;99465.19;;;14.04;100.00
65897;BME280;52677;50.898;10.854;2022-10-18T06:54:09;99474.31;;;14.04;100.00
65897;BME280;52677;50.898;10.854;2022-10-18T06:56:11;99475.94;;;14.05;100.00
65897;BME280;52677;50.898;10.854;2022-10-18T06:58:12;99480.69;;;14.05;100.00
65897;BME280;52677;50.898;10.854;2022-10-18T07:00:12;99474.28;;;14.01;100.00
65897;BME280;52677;50.898;10.854;2022-10-18T07:02:14;99453.59;;;13.98;100.00
65897;BME280;52677;50.898;10.854;2022-10-18T07:04:16;99435.72;;;13.99;100.00
65897;BME280;52677;50.898;10.854;2022-10-18T07:06:17;99449.63;;;13.99;100.00
65897;BME280;52677;50.898;10.854;2022-10-18T07:08:17;99464.72;;;13.98;100.00
65897;BME280;52677;50.898;10.854;2022-10-18T07:10:18;99469.84;;;13.96;100.00
65897;BME280;52677;50.898;10.854;2022-10-18T07:12:18;99467.84;;;13.97;100.00
65897;BME280;52677;50.898;10.854;2022-10-18T07:14:18;99456.38;;;13.98;100.00
65897;BME280;52677;50.898;10.854;2022-10-18T07:16:19;99459.16;;;13.98;100.00
65897;BME280;52677;50.898;10.854;2022-10-18T07:18:19;99450.84;;;14.02;100.00
65897;BME280;52677;50.898;10.854;2022-10-18T07:20:21;99444.91;;;14.03;100.00
65897;BME280;52677;50.898;10.854;2022-10-18T07:22:22;99441.00;;;14.08;100.00
65897;BME280;52677;50.898;10.854;2022-10-18T07:24:22;99436.22;;;14.09;100.00
65897;BME280;52677;50.898;10.854;2022-10-18T07:26:27;99449.38;;;14.12;100.00
65897;BME280;52677;50.898;10.854;2022-10-18T07:28:28;99448.56;;;14.11;100.00
65897;BME280;52677;50.898;10.854;2022-10-18T07:30:28;99452.56;;;14.14;100.00
65897;BME280;52677;50.898;10.854;2022-10-18T07:32:28;99466.06;;;14.12;100.00
65897;BME280;52677;50.898;10.854;2022-10-18T07:34:29;99471.63;;;14.12;100.00
65897;BME280;52677;50.898;10.854;2022-10-18T07:36:29;99472.44;;;14.12;100.00
65897;BME280;52677;50.898;10.854;2022-10-18T07:38:30;99455.75;;;14.12;100.00
65897;BME280;52677;50.898;10.854;2022-10-18T07:40:31;99442.69;;;14.16;100.00
65897;BME280;52677;50.898;10.854;2022-10-18T07:42:34;99437.16;;;14.20;100.00
65897;BME280;52677;50.898;10.854;2022-10-18T07:44:34;99439.63;;;14.25;100.00
65897;BME280;52677;50.898;10.854;2022-10-18T07:46:34;99449.59;;;14.29;100.00
65897;BME280;52677;50.898;10.854;2022-10-18T07:48:34;99443.69;;;14.34;100.00
65897;BME280;52677;50.898;10.854;2022-10-18T07:50:35;99447.69;;;14.37;100.00
65897;BME280;52677;50.898;10.854;2022-10-18T07:52:35;99446.13;;;14.40;100.00
65897;BME280;52677;50.898;10.854;2022-10-18T07:54:35;99445.38;;;14.43;100.00
65897;BME280;52677;50.898;10.854;2022-10-18T07:56:36;99453.00;;;14.46;100.00
65897;BME280;52677;50.898;10.854;2022-10-18T07:58:36;99451.00;;;14.46;100.00
65897;BME280;52677;50.898;10.854;2022-10-18T08:00:36;99458.25;;;14.51;100.00
65897;BME280;52677;50.898;10.854;2022-10-18T08:02:37;99466.19;;;14.52;100.00
65897;BME280;52677;50.898;10.854;2022-10-18T08:04:38;99457.47;;;14.54;100.00
65897;BME280;52677;50.898;10.854;2022-10-18T08:06:38;99466.22;;;14.56;100.00
65897;BME280;52677;50.898;10.854;2022-10-18T08:08:39;99463.44;;;14.56;100.00
65897;BME280;52677;50.898;10.854;2022-10-18T08:10:39;99466.69;;;14.58;100.00
65897;BME280;52677;50.898;10.854;2022-10-18T08:12:39;99461.91;;;14.58;100.00
65897;BME280;52677;50.898;10.854;2022-10-18T08:14:40;99464.69;;;14.58;100.00
65897;BME280;52677;50.898;10.854;2022-10-18T08:16:41;99465.50;;;14.59;100.00
65897;BME280;52677;50.898;10.854;2022-10-18T08:18:41;99456.34;;;14.58;100.00
65897;BME280;52677;50.898;10.854;2022-10-18T08:20:43;99455.19;;;14.63;100.00
65897;BME280;52677;50.898;10.854;2022-10-18T08:22:44;99461.59;;;14.67;100.00
65897;BME280;52677;50.898;10.854;2022-10-18T08:24:44;99458.00;;;14.67;100.00
65897;BME280;52677;50.898;10.854;2022-10-18T08:26:44;99456.44;;;14.69;100.00
65897;BME280;52677;50.898;10.854;2022-10-18T08:28:45;99440.13;;;14.68;100.00
65897;BME280;52677;50.898;10.854;2022-10-18T08:30:45;99446.56;;;14.75;100.00
65897;BME280;52677;50.898;10.854;2022-10-18T08:32:45;99458.13;;;14.77;100.00
65897;BME280;52677;50.898;10.854;2022-10-18T08:34:46;99456.53;;;14.80;100.00
65897;BME280;52677;50.898;10.854;2022-10-18T08:36:46;99456.13;;;14.78;100.00
65897;BME280;52677;50.898;10.854;2022-10-18T08:38:46;99453.41;;;14.81;100.00
65897;BME280;52677;50.898;10.854;2022-10-18T08:40:48;99449.44;;;14.86;100.00
65897;BME280;52677;50.898;10.854;2022-10-18T08:43:02;99455.47;;;14.92;100.00
65897;BME280;52677;50.898;10.854;2022-10-18T08:45:07;99449.91;;;14.92;100.00
65897;BME280;52677;50.898;10.854;2022-10-18T08:47:19;99461.88;;;14.96;100.00
65897;BME280;52677;50.898;10.854;2022-10-18T08:49:38;99455.91;;;14.97;100.00
65897;BME280;52677;50.898;10.854;2022-10-18T08:51:44;99458.34;;;14.99;100.00
65897;BME280;52677;50.898;10.854;2022-10-18T08:54:09;99452.00;;;15.05;100.00
65897;BME280;52677;50.898;10.854;2022-10-18T08:56:12;99450.47;;;15.11;100.00
65897;BME280;52677;50.898;10.854;2022-10-18T08:58:23;99461.69;;;15.18;100.00
65897;BME280;52677;50.898;10.854;2022-10-18T09:00:29;99461.34;;;15.24;100.00
65897;BME280;52677;50.898;10.854;2022-10-18T09:02:40;99460.97;;;15.29;100.00
65897;BME280;52677;50.898;10.854;2022-10-18T09:11:55;99479.63;;;15.21;100.00
65897;BME280;52677;50.898;10.854;2022-10-18T09:16:15;99489.09;;;15.13;100.00
65897;BME280;52677;50.898;10.854;2022-10-18T09:20:28;99482.22;;;15.00;100.00
65897;BME280;52677;50.898;10.854;2022-10-18T09:24:55;99485.34;;;14.95;100.00
65897;BME280;52677;50.898;10.854;2022-10-18T09:27:02;99478.97;;;14.94;100.00
65897;BME280;52677;50.898;10.854;2022-10-18T09:31:36;99491.63;;;14.84;100.00
65897;BME280;52677;50.898;10.854;2022-10-18T09:33:49;99492.00;;;14.83;100.00
65897;BME280;52677;50.898;10.854;2022-10-18T09:36:01;99487.19;;;14.80;100.00
65897;BME280;52677;50.898;10.854;2022-10-18T09:38:04;99490.81;;;14.84;100.00
65897;BME280;52677;50.898;10.854;2022-10-18T09:40:14;99488.38;;;14.79;100.00
65897;BME280;52677;50.898;10.854;2022-10-18T09:42:22;99497.53;;;14.79;100.00
65897;BME280;52677;50.898;10.854;2022-10-18T09:44:29;99495.19;;;14.81;100.00
65897;BME280;52677;50.898;10.854;2022-10-18T09:46:38;99492.75;;;14.80;100.00
65897;BME280;52677;50.898;10.854;2022-10-18T09:48:50;99490.84;;;14.87;100.00
65897;BME280;52677;50.898;10.854;2022-10-18T09:50:59;99489.31;;;14.90;100.00
65897;BME280;52677;50.898;10.854;2022-10-18T09:55:31;99493.25;;;14.89;100.00
65897;BME280;52677;50.898;10.854;2022-10-18T09:57:39;99494.88;;;14.90;100.00
65897;BME280;52677;50.898;10.854;2022-10-18T09:59:42;99494.06;;;14.89;100.00
65897;BME280;52677;50.898;10.854;2022-10-18T10:01:44;99495.22;;;14.88;100.00
65897;BME280;52677;50.898;10.854;2022-10-18T10:03:45;99498.41;;;14.87;100.00
65897;BME280;52677;50.898;10.854;2022-10-18T10:05:45;99498.41;;;14.87;100.00
65897;BME280;52677;50.898;10.854;2022-10-18T10:07:47;99501.97;;;14.84;100.00
65897;BME280;52677;50.898;10.854;2022-10-18T10:10:05;99507.53;;;14.84;100.00
65897;BME280;52677;50.898;10.854;2022-10-18T10:12:24;99495.19;;;14.81;100.00
65897;BME280;52677;50.898;10.854;2022-10-18T10:14:27;99506.34;;;14.85;100.00
65897;BME280;52677;50.898;10.854;2022-10-18T10:16:29;99501.56;;;14.82;100.00
65897;BME280;52677;50.898;10.854;2022-10-18T10:18:33;99511.13;;;14.84;100.00
65897;BME280;52677;50.898;10.854;2022-10-18T10:20:44;99507.94;;;14.82;100.00
65897;BME280;52677;50.898;10.854;2022-10-18T10:22:45;99511.50;;;14.83;100.00
65897;BME280;52677;50.898;10.854;2022-10-18T10:24:52;99515.94;;;14.87;100.00
65897;BME280;52677;50.898;10.854;2022-10-18T10:27:01;99504.78;;;14.87;100.00
65897;BME280;52677;50.898;10.854;2022-10-18T10:29:02;99509.97;;;14.89;100.00
65897;BME280;52677;50.898;10.854;2022-10-18T10:33:36;99509.13;;;14.81;100.00
65897;BME280;52677;50.898;10.854;2022-10-18T10:35:40;99512.69;;;14.82;100.00
65897;BME280;52677;50.898;10.854;2022-10-18T10:37:40;99515.09;;;14.83;100.00
65897;BME280;52677;50.898;10.854;2022-10-18T10:39:40;99519.44;;;14.81;100.00
65897;BME280;52677;50.898;10.854;2022-10-18T10:41:40;99514.31;;;14.83;100.00
65897;BME280;52677;50.898;10.854;2022-10-18T10:43:41;99517.84;;;14.80;100.00
65897;BME280;52677;50.898;10.854;2022-10-18T10:48:14;99513.53;;;14.86;100.00
65897;BME280;52677;50.898;10.854;2022-10-18T10:50:24;99509.94;;;14.85;100.00
65897;BME280;52677;50.898;10.854;2022-10-18T10:52:27;99516.72;;;14.88;100.00
65897;BME280;52677;50.898;10.854;2022-10-18T10:54:28;99520.28;;;14.85;100.00
65897;BME280;52677;50.898;10.854;2022-10-18T10:56:37;99511.13;;;14.84;100.00
65897;BME280;52677;50.898;10.854;2022-10-18T10:58:50;99521.09;;;14.85;100.00
65897;BME280;52677;50.898;10.854;2022-10-18T11:00:51;99519.91;;;14.86;100.00
65897;BME280;52677;50.898;10.854;2022-10-18T11:03:04;99526.56;;;14.78;100.00
65897;BME280;52677;50.898;10.854;2022-10-18T11:05:41;99524.19;;;14.80;100.00
65897;BME280;52677;50.898;10.854;2022-10-18T11:07:44;99526.94;;;14.73;100.00
65897;BME280;52677;50.898;10.854;2022-10-18T11:10:11;99520.91;;;14.71;100.00
65897;BME280;52677;50.898;10.854;2022-10-18T11:14:37;99530.53;;;14.74;100.00